RKPK/PUS METAR and TAF weather

Enter ICAO airport designator
Station Type Date Time Source
RKPK METAR 2020/09/18 06:00 UTC NOAA

RKPK 180600Z 21007KT CAVOK 23/15 Q1013


Station Type Date Time Source
RKPK Decoded METAR 2020/09/18 06:00 UTC NOAA

Pusan / Kimhae International Airport, Korea, South (RKPK) 35-11N 128-56E 6M
Sep 18, 2020 - 02:00 AM EDT / 2020.09.18 0600 UTC
Wind: from the SSW (210 degrees) at 8 MPH (7 KT):0
Visibility: greater than 7 mile(s):0
Temperature: 73 F (23 C)
Dew Point: 59 F (15 C)
Relative Humidity: 60%
Pressure (altimeter): 29.91 in. Hg (1013 hPa)
ob: RKPK 180600Z 21007KT CAVOK 23/15 Q1013
cycle: 6

Station Type Date Time Source
RKPK TAF 2020/09/18 06:51 UTC NOAA

TAF TAF RKPK 180500Z 1806/1912 27006KT 9999 SCT030 BKN200 TN18/2117Z TX19/0628Z
BECMG 1812/1813 30006KT

Example: see airport list